sensor_id;sensor_type;location;lat;lon;timestamp;P1;durP1;ratioP1;P2;durP2;ratioP2
26838;SDS011;40088;51.214;6.786;2023-07-16T00:07:10;3.10;;;2.40;;
26838;SDS011;40088;51.214;6.786;2023-07-16T00:17:10;3.25;;;2.30;;
26838;SDS011;40088;51.214;6.786;2023-07-16T00:27:11;4.57;;;2.63;;
26838;SDS011;40088;51.214;6.786;2023-07-16T00:37:11;3.67;;;1.85;;
26838;SDS011;40088;51.214;6.786;2023-07-16T00:47:12;2.60;;;1.90;;
26838;SDS011;40088;51.214;6.786;2023-07-16T00:57:12;3.00;;;2.13;;
26838;SDS011;40088;51.214;6.786;2023-07-16T01:07:13;3.85;;;2.10;;
26838;SDS011;40088;51.214;6.786;2023-07-16T01:17:14;3.60;;;2.58;;
26838;SDS011;40088;51.214;6.786;2023-07-16T01:27:29;2.22;;;2.03;;
26838;SDS011;40088;51.214;6.786;2023-07-16T01:37:51;3.28;;;2.05;;
26838;SDS011;40088;51.214;6.786;2023-07-16T01:47:55;2.95;;;1.85;;
26838;SDS011;40088;51.214;6.786;2023-07-16T02:08:06;4.45;;;2.60;;
26838;SDS011;40088;51.214;6.786;2023-07-16T02:18:06;4.60;;;2.17;;
26838;SDS011;40088;51.214;6.786;2023-07-16T02:28:06;3.58;;;2.10;;
26838;SDS011;40088;51.214;6.786;2023-07-16T02:38:06;5.30;;;2.53;;
26838;SDS011;40088;51.214;6.786;2023-07-16T02:48:07;4.45;;;2.60;;
26838;SDS011;40088;51.214;6.786;2023-07-16T02:58:07;3.38;;;1.98;;
26838;SDS011;40088;51.214;6.786;2023-07-16T03:08:08;5.00;;;2.40;;
26838;SDS011;40088;51.214;6.786;2023-07-16T03:18:08;2.80;;;1.73;;
26838;SDS011;40088;51.214;6.786;2023-07-16T03:28:08;3.15;;;2.08;;
26838;SDS011;40088;51.214;6.786;2023-07-16T03:38:09;2.55;;;1.83;;
26838;SDS011;40088;51.214;6.786;2023-07-16T03:48:13;3.08;;;1.80;;
26838;SDS011;40088;51.214;6.786;2023-07-16T03:58:13;4.47;;;2.10;;
26838;SDS011;40088;51.214;6.786;2023-07-16T04:08:13;3.67;;;2.65;;
26838;SDS011;40088;51.214;6.786;2023-07-16T04:18:14;3.72;;;1.67;;
26838;SDS011;40088;51.214;6.786;2023-07-16T04:28:14;4.40;;;1.88;;
26838;SDS011;40088;51.214;6.786;2023-07-16T04:38:14;3.53;;;2.50;;
26838;SDS011;40088;51.214;6.786;2023-07-16T04:48:15;2.90;;;2.00;;
26838;SDS011;40088;51.214;6.786;2023-07-16T04:58:15;3.20;;;2.20;;
26838;SDS011;40088;51.214;6.786;2023-07-16T05:08:15;3.15;;;2.20;;
26838;SDS011;40088;51.214;6.786;2023-07-16T05:18:16;8.32;;;1.92;;
26838;SDS011;40088;51.214;6.786;2023-07-16T05:28:17;4.30;;;2.40;;
26838;SDS011;40088;51.214;6.786;2023-07-16T05:38:18;3.55;;;2.65;;
26838;SDS011;40088;51.214;6.786;2023-07-16T05:48:18;2.90;;;1.90;;
26838;SDS011;40088;51.214;6.786;2023-07-16T05:58:19;3.08;;;2.47;;
26838;SDS011;40088;51.214;6.786;2023-07-16T06:08:19;3.42;;;2.13;;
26838;SDS011;40088;51.214;6.786;2023-07-16T06:18:20;2.70;;;2.00;;
26838;SDS011;40088;51.214;6.786;2023-07-16T06:28:20;3.25;;;2.30;;
26838;SDS011;40088;51.214;6.786;2023-07-16T06:38:21;5.60;;;2.40;;
26838;SDS011;40088;51.214;6.786;2023-07-16T06:48:21;4.07;;;2.83;;
26838;SDS011;40088;51.214;6.786;2023-07-16T06:58:23;4.18;;;2.45;;
26838;SDS011;40088;51.214;6.786;2023-07-16T07:08:31;4.35;;;2.80;;
26838;SDS011;40088;51.214;6.786;2023-07-16T07:18:31;4.40;;;3.00;;
26838;SDS011;40088;51.214;6.786;2023-07-16T07:28:31;4.82;;;3.10;;
26838;SDS011;40088;51.214;6.786;2023-07-16T07:38:32;4.65;;;3.10;;
26838;SDS011;40088;51.214;6.786;2023-07-16T07:48:32;4.72;;;3.13;;
26838;SDS011;40088;51.214;6.786;2023-07-16T07:58:32;9.00;;;3.42;;
26838;SDS011;40088;51.214;6.786;2023-07-16T08:08:33;3.53;;;3.15;;
26838;SDS011;40088;51.214;6.786;2023-07-16T08:18:33;6.78;;;4.10;;
26838;SDS011;40088;51.214;6.786;2023-07-16T08:28:33;5.35;;;3.72;;
26838;SDS011;40088;51.214;6.786;2023-07-16T08:38:33;6.55;;;4.10;;
26838;SDS011;40088;51.214;6.786;2023-07-16T08:48:34;7.50;;;4.65;;
26838;SDS011;40088;51.214;6.786;2023-07-16T08:58:34;9.05;;;4.32;;
26838;SDS011;40088;51.214;6.786;2023-07-16T09:08:37;7.60;;;4.13;;
26838;SDS011;40088;51.214;6.786;2023-07-16T09:18:39;7.75;;;4.20;;
26838;SDS011;40088;51.214;6.786;2023-07-16T09:28:40;7.40;;;3.67;;
26838;SDS011;40088;51.214;6.786;2023-07-16T09:38:40;9.07;;;4.00;;
26838;SDS011;40088;51.214;6.786;2023-07-16T09:48:41;6.55;;;3.92;;
26838;SDS011;40088;51.214;6.786;2023-07-16T09:58:41;6.25;;;3.95;;
26838;SDS011;40088;51.214;6.786;2023-07-16T10:08:48;10.25;;;4.57;;
26838;SDS011;40088;51.214;6.786;2023-07-16T10:18:52;10.20;;;4.05;;
26838;SDS011;40088;51.214;6.786;2023-07-16T10:28:53;9.98;;;4.97;;
26838;SDS011;40088;51.214;6.786;2023-07-16T10:38:53;11.38;;;4.47;;
26838;SDS011;40088;51.214;6.786;2023-07-16T10:48:54;7.30;;;3.80;;
26838;SDS011;40088;51.214;6.786;2023-07-16T10:58:54;8.60;;;4.35;;
26838;SDS011;40088;51.214;6.786;2023-07-16T11:08:54;6.13;;;3.90;;
26838;SDS011;40088;51.214;6.786;2023-07-16T11:19:05;6.93;;;3.97;;
26838;SDS011;40088;51.214;6.786;2023-07-16T11:29:12;6.47;;;3.78;;
26838;SDS011;40088;51.214;6.786;2023-07-16T11:39:14;6.68;;;3.50;;
26838;SDS011;40088;51.214;6.786;2023-07-16T11:49:14;6.93;;;4.03;;
26838;SDS011;40088;51.214;6.786;2023-07-16T11:59:15;7.25;;;4.20;;
26838;SDS011;40088;51.214;6.786;2023-07-16T12:09:20;8.40;;;3.88;;
26838;SDS011;40088;51.214;6.786;2023-07-16T12:19:20;9.63;;;4.20;;
26838;SDS011;40088;51.214;6.786;2023-07-16T12:29:20;6.32;;;4.07;;
26838;SDS011;40088;51.214;6.786;2023-07-16T12:39:21;6.80;;;3.70;;
26838;SDS011;40088;51.214;6.786;2023-07-16T12:49:21;10.18;;;4.13;;
26838;SDS011;40088;51.214;6.786;2023-07-16T12:59:22;7.20;;;4.03;;
26838;SDS011;40088;51.214;6.786;2023-07-16T13:09:24;6.40;;;4.10;;
26838;SDS011;40088;51.214;6.786;2023-07-16T13:19:24;7.38;;;4.10;;
26838;SDS011;40088;51.214;6.786;2023-07-16T13:29:25;5.35;;;4.15;;
26838;SDS011;40088;51.214;6.786;2023-07-16T13:39:25;6.13;;;3.85;;
26838;SDS011;40088;51.214;6.786;2023-07-16T13:49:25;4.60;;;3.92;;
26838;SDS011;40088;51.214;6.786;2023-07-16T13:59:25;8.23;;;4.18;;
26838;SDS011;40088;51.214;6.786;2023-07-16T14:09:26;6.18;;;3.78;;
26838;SDS011;40088;51.214;6.786;2023-07-16T14:19:26;7.25;;;4.03;;
26838;SDS011;40088;51.214;6.786;2023-07-16T14:29:26;7.40;;;3.80;;
26838;SDS011;40088;51.214;6.786;2023-07-16T14:39:29;6.80;;;3.63;;
26838;SDS011;40088;51.214;6.786;2023-07-16T14:49:29;6.50;;;3.53;;
26838;SDS011;40088;51.214;6.786;2023-07-16T14:59:30;4.63;;;3.33;;
26838;SDS011;40088;51.214;6.786;2023-07-16T15:09:30;6.95;;;3.60;;
26838;SDS011;40088;51.214;6.786;2023-07-16T15:19:32;5.70;;;3.75;;
26838;SDS011;40088;51.214;6.786;2023-07-16T15:29:34;7.82;;;3.45;;
26838;SDS011;40088;51.214;6.786;2023-07-16T15:39:35;9.35;;;4.32;;
26838;SDS011;40088;51.214;6.786;2023-07-16T15:49:35;5.40;;;3.42;;
26838;SDS011;40088;51.214;6.786;2023-07-16T15:59:35;4.43;;;3.22;;
26838;SDS011;40088;51.214;6.786;2023-07-16T16:09:36;4.55;;;3.70;;
26838;SDS011;40088;51.214;6.786;2023-07-16T16:19:36;5.75;;;3.65;;
26838;SDS011;40088;51.214;6.786;2023-07-16T16:29:37;4.63;;;3.45;;
26838;SDS011;40088;51.214;6.786;2023-07-16T16:39:37;6.43;;;3.55;;
26838;SDS011;40088;51.214;6.786;2023-07-16T16:49:37;5.25;;;3.47;;
26838;SDS011;40088;51.214;6.786;2023-07-16T16:59:38;5.53;;;3.60;;
26838;SDS011;40088;51.214;6.786;2023-07-16T17:09:38;5.18;;;3.67;;
26838;SDS011;40088;51.214;6.786;2023-07-16T17:19:40;6.38;;;3.95;;
26838;SDS011;40088;51.214;6.786;2023-07-16T17:29:44;5.25;;;4.10;;
26838;SDS011;40088;51.214;6.786;2023-07-16T17:39:45;4.53;;;3.53;;
26838;SDS011;40088;51.214;6.786;2023-07-16T17:49:47;5.20;;;3.38;;
26838;SDS011;40088;51.214;6.786;2023-07-16T17:59:48;5.17;;;3.27;;
26838;SDS011;40088;51.214;6.786;2023-07-16T18:09:48;3.83;;;3.22;;
26838;SDS011;40088;51.214;6.786;2023-07-16T18:19:53;3.90;;;3.47;;
26838;SDS011;40088;51.214;6.786;2023-07-16T18:29:57;5.65;;;3.90;;
26838;SDS011;40088;51.214;6.786;2023-07-16T18:39:58;5.43;;;3.50;;
26838;SDS011;40088;51.214;6.786;2023-07-16T18:49:59;4.95;;;3.47;;
26838;SDS011;40088;51.214;6.786;2023-07-16T19:00:00;4.78;;;3.63;;
26838;SDS011;40088;51.214;6.786;2023-07-16T19:10:00;6.53;;;3.85;;
26838;SDS011;40088;51.214;6.786;2023-07-16T19:20:01;5.07;;;3.67;;
26838;SDS011;40088;51.214;6.786;2023-07-16T19:30:01;5.97;;;3.53;;
26838;SDS011;40088;51.214;6.786;2023-07-16T19:40:01;5.20;;;3.67;;
26838;SDS011;40088;51.214;6.786;2023-07-16T19:50:04;3.77;;;3.10;;
26838;SDS011;40088;51.214;6.786;2023-07-16T20:00:06;7.30;;;3.50;;
26838;SDS011;40088;51.214;6.786;2023-07-16T20:10:11;5.80;;;4.28;;
26838;SDS011;40088;51.214;6.786;2023-07-16T20:20:12;4.80;;;3.53;;
26838;SDS011;40088;51.214;6.786;2023-07-16T20:30:14;4.23;;;3.17;;
26838;SDS011;40088;51.214;6.786;2023-07-16T20:40:15;4.75;;;3.67;;
26838;SDS011;40088;51.214;6.786;2023-07-16T20:50:16;5.85;;;3.97;;
26838;SDS011;40088;51.214;6.786;2023-07-16T21:00:19;5.10;;;3.43;;
26838;SDS011;40088;51.214;6.786;2023-07-16T21:10:21;6.45;;;4.13;;
26838;SDS011;40088;51.214;6.786;2023-07-16T21:20:25;6.53;;;4.35;;
26838;SDS011;40088;51.214;6.786;2023-07-16T21:30:27;4.60;;;3.47;;
26838;SDS011;40088;51.214;6.786;2023-07-16T21:40:29;5.20;;;4.20;;
26838;SDS011;40088;51.214;6.786;2023-07-16T21:50:29;7.07;;;4.25;;
26838;SDS011;40088;51.214;6.786;2023-07-16T22:00:30;7.35;;;4.30;;
26838;SDS011;40088;51.214;6.786;2023-07-16T22:10:30;6.45;;;3.70;;
26838;SDS011;40088;51.214;6.786;2023-07-16T22:20:30;5.40;;;4.00;;
26838;SDS011;40088;51.214;6.786;2023-07-16T22:30:30;5.50;;;3.70;;
26838;SDS011;40088;51.214;6.786;2023-07-16T22:40:31;5.43;;;3.90;;
26838;SDS011;40088;51.214;6.786;2023-07-16T22:50:31;7.93;;;3.72;;
26838;SDS011;40088;51.214;6.786;2023-07-16T23:00:33;5.70;;;3.60;;
26838;SDS011;40088;51.214;6.786;2023-07-16T23:10:33;4.47;;;3.45;;
26838;SDS011;40088;51.214;6.786;2023-07-16T23:20:34;6.72;;;3.78;;
26838;SDS011;40088;51.214;6.786;2023-07-16T23:30:34;5.78;;;4.07;;
26838;SDS011;40088;51.214;6.786;2023-07-16T23:40:35;6.93;;;3.88;;
26838;SDS011;40088;51.214;6.786;2023-07-16T23:50:35;5.90;;;3.50;;
